DLH8EJ ENBR-EDDF
Flight info
| Callsign | DLH8EJ |
|---|---|
| Flight time | N/A |
| Altitude | 37000 |
| Route | TUXIL DCT ZOL DCT MITSI P619 NAVIK DCT ATTUS DCT RIMET T157 KERAX KERAX5D |
| Aircraft | A320/M-SDE3FGHIRWY/LB1 |
Departure
| Time | 2026-05-01 15:03 |
|---|---|
| Airport | Bergen Airport, Flesland (ENBR) |
Arrival
| Time | N/A |
|---|---|
| Airport | Frankfurt Main Airport (EDDF) |
| Time | Latitude | Longitude | Altitude | Speed | Heading |
|---|---|---|---|---|---|
| 2026-05-01 14:30 | 60.28893 | 5.22551 | 173 ft | 0 kts | 83° |
| 2026-05-01 14:52 | 60.28878 | 5.22456 | 169 ft | 4 kts | 49° |
| 2026-05-01 14:53 | 60.28858 | 5.22427 | 167 ft | 4 kts | 6° |
| 2026-05-01 14:53 | 60.28848 | 5.22426 | 167 ft | 0 kts | 351° |
| 2026-05-01 14:54 | 60.28849 | 5.22426 | 167 ft | 0 kts | 351° |
| 2026-05-01 14:55 | 60.28857 | 5.22423 | 167 ft | 2 kts | 350° |
| 2026-05-01 14:55 | 60.28894 | 5.22410 | 167 ft | 9 kts | 349° |
| 2026-05-01 14:55 | 60.28954 | 5.22274 | 162 ft | 18 kts | 327° |
| 2026-05-01 14:55 | 60.29096 | 5.22220 | 163 ft | 24 kts | 351° |
| 2026-05-01 14:56 | 60.29272 | 5.22161 | 162 ft | 25 kts | 351° |
| 2026-05-01 14:56 | 60.29448 | 5.22101 | 157 ft | 26 kts | 351° |
| 2026-05-01 14:56 | 60.29631 | 5.22041 | 148 ft | 27 kts | 351° |
| 2026-05-01 14:56 | 60.29813 | 5.21980 | 149 ft | 25 kts | 351° |
| 2026-05-01 14:57 | 60.29976 | 5.21925 | 156 ft | 23 kts | 351° |
| 2026-05-01 14:57 | 60.30226 | 5.21840 | 164 ft | 15 kts | 351° |
| 2026-05-01 14:57 | 60.30320 | 5.21810 | 169 ft | 13 kts | 351° |
| 2026-05-01 14:58 | 60.30403 | 5.21781 | 172 ft | 13 kts | 350° |
| 2026-05-01 14:58 | 60.30502 | 5.21748 | 176 ft | 16 kts | 351° |
| 2026-05-01 14:58 | 60.30606 | 5.21712 | 180 ft | 13 kts | 348° |
| 2026-05-01 14:58 | 60.30665 | 5.21623 | 182 ft | 9 kts | 281° |
| 2026-05-01 14:59 | 60.30663 | 5.21576 | 183 ft | 0 kts | 258° |
| 2026-05-01 15:01 | 60.30659 | 5.21543 | 183 ft | 5 kts | 257° |
| 2026-05-01 15:01 | 60.30650 | 5.21452 | 196 ft | 8 kts | 255° |
| 2026-05-01 15:02 | 60.30609 | 5.21390 | 183 ft | 9 kts | 181° |
| 2026-05-01 15:02 | 60.30558 | 5.21407 | 179 ft | 13 kts | 170° |
| 2026-05-01 15:02 | 60.30332 | 5.21485 | 166 ft | 56 kts | 171° |
| 2026-05-01 15:02 | 60.29732 | 5.21686 | 152 ft | 117 kts | 171° |
| 2026-05-01 15:03 | 60.28774 | 5.22008 | 270 ft | 153 kts | 170° |
| 2026-05-01 15:03 | 60.27703 | 5.22386 | 820 ft | 162 kts | 171° |
| 2026-05-01 15:03 | 60.26574 | 5.22812 | 1468 ft | 170 kts | 172° |
| 2026-05-01 15:03 | 60.25393 | 5.23276 | 2117 ft | 179 kts | 172° |
| 2026-05-01 15:04 | 60.24100 | 5.23718 | 2596 ft | 199 kts | 175° |
| 2026-05-01 15:04 | 60.22665 | 5.24052 | 3169 ft | 216 kts | 178° |
| 2026-05-01 15:04 | 60.21108 | 5.24406 | 3794 ft | 233 kts | 175° |
| 2026-05-01 15:04 | 60.19477 | 5.24948 | 4630 ft | 241 kts | 174° |
| 2026-05-01 15:05 | 60.17820 | 5.25596 | 5507 ft | 245 kts | 172° |
| 2026-05-01 15:05 | 60.16136 | 5.26308 | 6412 ft | 248 kts | 174° |
| 2026-05-01 15:05 | 60.14429 | 5.26931 | 7225 ft | 252 kts | 176° |
| 2026-05-01 15:05 | 60.12673 | 5.27433 | 8007 ft | 257 kts | 178° |
| 2026-05-01 15:06 | 60.10881 | 5.27904 | 8825 ft | 262 kts | 178° |
| 2026-05-01 15:06 | 60.09068 | 5.28485 | 9672 ft | 266 kts | 176° |
| 2026-05-01 15:06 | 60.07239 | 5.29156 | 10478 ft | 268 kts | 177° |
| 2026-05-01 15:06 | 60.05358 | 5.29768 | 10952 ft | 283 kts | 178° |
| 2026-05-01 15:07 | 60.03336 | 5.30294 | 11229 ft | 302 kts | 178° |
| 2026-05-01 15:07 | 60.01179 | 5.30769 | 11503 ft | 321 kts | 175° |
| 2026-05-01 15:07 | 59.98908 | 5.31288 | 11944 ft | 333 kts | 179° |
| 2026-05-01 15:07 | 59.96572 | 5.31891 | 12399 ft | 346 kts | 178° |
| 2026-05-01 15:08 | 59.94158 | 5.32534 | 12976 ft | 353 kts | 178° |
| 2026-05-01 15:08 | 59.91703 | 5.33189 | 13645 ft | 358 kts | 178° |
| 2026-05-01 15:08 | 59.89222 | 5.33850 | 14291 ft | 362 kts | 179° |
| 2026-05-01 15:08 | 59.86751 | 5.34510 | 14895 ft | 365 kts | 178° |
| 2026-05-01 15:09 | 59.84214 | 5.35187 | 15497 ft | 369 kts | 178° |
| 2026-05-01 15:09 | 59.81655 | 5.35867 | 16100 ft | 372 kts | 178° |
| 2026-05-01 15:09 | 59.79079 | 5.36527 | 16679 ft | 375 kts | 179° |
| 2026-05-01 15:09 | 59.76477 | 5.37051 | 17251 ft | 377 kts | 180° |
| 2026-05-01 15:10 | 59.73853 | 5.37475 | 17793 ft | 380 kts | 181° |
| 2026-05-01 15:10 | 59.68528 | 5.38240 | 18821 ft | 387 kts | 181° |
| 2026-05-01 15:10 | 59.65833 | 5.38639 | 19306 ft | 389 kts | 181° |
| 2026-05-01 15:11 | 59.63132 | 5.39100 | 19796 ft | 392 kts | 180° |
| 2026-05-01 15:11 | 59.57674 | 5.40446 | 20745 ft | 398 kts | 178° |
| 2026-05-01 15:11 | 59.54926 | 5.41212 | 21230 ft | 399 kts | 178° |
| 2026-05-01 15:12 | 59.52169 | 5.41975 | 21691 ft | 402 kts | 178° |
| 2026-05-01 15:12 | 59.46594 | 5.43446 | 22572 ft | 406 kts | 178° |
| 2026-05-01 15:12 | 59.43784 | 5.44154 | 22988 ft | 408 kts | 178° |
| 2026-05-01 15:13 | 59.35276 | 5.46591 | 24197 ft | 417 kts | 175° |
| 2026-05-01 15:14 | 59.29550 | 5.48787 | 24892 ft | 421 kts | 174° |
| 2026-05-01 15:14 | 59.26668 | 5.49907 | 25241 ft | 423 kts | 174° |
| 2026-05-01 15:14 | 59.20860 | 5.52081 | 25904 ft | 427 kts | 175° |
| 2026-05-01 15:15 | 59.14986 | 5.54202 | 26507 ft | 431 kts | 175° |
| 2026-05-01 15:15 | 59.09058 | 5.56318 | 27112 ft | 435 kts | 175° |
| 2026-05-01 15:16 | 59.03080 | 5.58452 | 27700 ft | 438 kts | 175° |
| 2026-05-01 15:16 | 58.97058 | 5.60608 | 28289 ft | 442 kts | 175° |
| 2026-05-01 15:17 | 58.91027 | 5.62758 | 29087 ft | 440 kts | 175° |
| 2026-05-01 15:18 | 58.82037 | 5.66279 | 30286 ft | 439 kts | 172° |
| 2026-05-01 15:18 | 58.79069 | 5.67677 | 30631 ft | 439 kts | 171° |
| 2026-05-01 15:19 | 58.70196 | 5.71937 | 31642 ft | 437 kts | 172° |
| 2026-05-01 15:19 | 58.64295 | 5.74634 | 32315 ft | 436 kts | 172° |
| 2026-05-01 15:19 | 58.61342 | 5.75953 | 32652 ft | 435 kts | 172° |
| 2026-05-01 15:20 | 58.55450 | 5.78582 | 33343 ft | 434 kts | 172° |
| 2026-05-01 15:20 | 58.52515 | 5.79901 | 33682 ft | 434 kts | 172° |
| 2026-05-01 15:20 | 58.49574 | 5.81229 | 34009 ft | 433 kts | 172° |
| 2026-05-01 15:21 | 58.46645 | 5.82545 | 34318 ft | 433 kts | 172° |
| 2026-05-01 15:21 | 58.43711 | 5.83855 | 34601 ft | 432 kts | 172° |
| 2026-05-01 15:21 | 58.40782 | 5.85159 | 34866 ft | 432 kts | 172° |
| 2026-05-01 15:21 | 58.37883 | 5.86451 | 35130 ft | 432 kts | 172° |
| 2026-05-01 15:22 | 58.32029 | 5.89070 | 35600 ft | 432 kts | 172° |
| 2026-05-01 15:22 | 58.29108 | 5.90373 | 35851 ft | 431 kts | 172° |
| 2026-05-01 15:22 | 58.26151 | 5.91684 | 36093 ft | 431 kts | 172° |
| 2026-05-01 15:23 | 58.23266 | 5.92955 | 36324 ft | 431 kts | 172° |
| 2026-05-01 15:23 | 58.20347 | 5.94239 | 36550 ft | 431 kts | 172° |
| 2026-05-01 15:23 | 58.17393 | 5.95541 | 36773 ft | 430 kts | 172° |
| 2026-05-01 15:23 | 58.14515 | 5.96807 | 36985 ft | 430 kts | 172° |
| 2026-05-01 15:24 | 58.11599 | 5.98084 | 37185 ft | 430 kts | 172° |
| 2026-05-01 15:24 | 58.08676 | 5.99362 | 37253 ft | 433 kts | 172° |
| 2026-05-01 15:24 | 58.02760 | 6.01958 | 37248 ft | 434 kts | 171° |
| 2026-05-01 15:25 | 57.96907 | 6.04514 | 37248 ft | 438 kts | 172° |
| 2026-05-01 15:25 | 57.90911 | 6.07118 | 37256 ft | 446 kts | 171° |
| 2026-05-01 15:26 | 57.84812 | 6.09750 | 37251 ft | 452 kts | 171° |
| 2026-05-01 15:26 | 57.78675 | 6.12403 | 37252 ft | 453 kts | 171° |
| 2026-05-01 15:27 | 57.72524 | 6.15055 | 37254 ft | 453 kts | 171° |
| 2026-05-01 15:28 | 57.64309 | 6.18568 | 37252 ft | 453 kts | 171° |
| 2026-05-01 15:28 | 57.58203 | 6.21167 | 37253 ft | 453 kts | 171° |
| 2026-05-01 15:29 | 57.48987 | 6.25085 | 37243 ft | 453 kts | 171° |
| 2026-05-01 15:30 | 57.37673 | 6.29867 | 37260 ft | 454 kts | 171° |
| 2026-05-01 15:31 | 57.18194 | 6.38024 | 37256 ft | 454 kts | 171° |
| 2026-05-01 15:32 | 57.05876 | 6.43142 | 37266 ft | 454 kts | 171° |
| 2026-05-01 15:33 | 56.97068 | 6.49630 | 37258 ft | 466 kts | 147° |
| 2026-05-01 15:34 | 56.89267 | 6.60434 | 37275 ft | 469 kts | 146° |